South Fork, PA

10:42 AM EDT on September 03, 2015 (GMT -0400)
Jackson Twp - Swigle Mountain Road | | Change Station
CLOSE
Current Station
Personal Weather Station
Location: Mineral Point, PA
Elevation: 2277 ft
Nearby Weather Stations

Elev 2277 ft 40.40 °N, 78.80 °W | Updated 7 seconds ago

Mostly Cloudy
Mostly Cloudy
73.4 °F
Feels Like 73.4 °F
N
5.8
Wind Variable Wind from NW
Gusts 5.8 mph

Today
High -- | Low -- °F
--% Chance of Precip.
Yesterday
High -- | Low -- °F
Precip. -- in
6:44 AM 7:44 PM
Waning Gibbous, 69% visible
Pressure 30.02 in
Visibility 3.0 miles
Clouds Overcast 600 ft
Dew Point 72 °F
Humidity 96%
Rainfall 0.00 in
Snow Depth Not available.
UV 1 out of 12
Pollen 10.00 out of 12
Air Quality Not available.
Flu Activity Not available.
METAR KJST 031354Z AUTO 26004KT 3SM HZ OVC006 21/18 A3007 RMK AO2 SLP166 T02110178
Pressure 30.02 in
Visibility 3.0 miles
Clouds Overcast 600 ft
Dew Point 72 °F
Humidity 96%
Rainfall 0.00 in
Snow Depth Not available.
UV 1 out of 12
Pollen 10.00 out of 12
Air Quality Not available.
Flu Activity Not available.
METAR KJST 031354Z AUTO 26004KT 3SM HZ OVC006 21/18 A3007 RMK AO2 SLP166 T02110178

10-Day Weather Forecast

×

Almanac

Astronomy

Sep. 03, 2015 Rise Set
Actual Time
Civil Twilight
Nautical Twilight
Astronomical Twilight
Moon
Length of Visible Light
Length of Day
Tomorrow will be .
, % of the Moon is Illuminated

Today's Extremes

State Highs State Lows

Community

WunderPhotos

Upload Photos

1,851,960 photos uploaded!

WunderBlogs® & News

Nearby

Air Quality

  Air Quality AQ Index Pollutant
Not available.

Snow Depth

Station Depth Elevation

Earthquake Activity

City Distance Mag. Time & Date
Minimum magnitude displayed is 2.5.

Coastal Water Temperatures

Place Temperature

Stations

Nearby Weather Stations

Station Location Temp. Windchill Dew Point Humidity Wind Precip. Elev Updated Type